Time;durP1;ratioP1;P1;durP2;ratioP2;P2;SDS_P1;SDS_P2;PMS_P1;PMS_P2;Temp;Humidity;BMP_temperature;BMP_pressure;BME280_temperature;BME280_humidity;BME280_pressure;Samples;Min_cycle;Max_cycle;Signal;HPM_P1;HPM_P2
2023/10/02 00:03:47;;;;;;;13.43;6.68;;;;;;;;;;5060396;28;20495;-81
2023/10/02 00:06:16;;;;;;;13.95;6.68;;;;;;;;;;5044719;28;20032;-81
2023/10/02 00:08:51;;;;;;;13.23;6.13;;;;;;;;;;5063226;28;20031;-81
2023/10/02 00:14:18;;;;;;;15.70;6.90;;;;;;;;;;5060008;28;20096;-81
2023/10/02 00:17:03;;;;;;;13.02;6.65;;;;;;;;;;5045461;28;20129;-81
2023/10/02 00:19:39;;;;;;;13.77;6.63;;;;;;;;;;5040274;28;20541;-81
2023/10/02 00:22:06;;;;;;;11.98;6.35;;;;;;;;;;5062207;28;20064;-81
2023/10/02 00:24:41;;;;;;;11.25;6.43;;;;;;;;;;5049666;28;20040;-81
2023/10/02 00:27:09;;;;;;;12.65;6.28;;;;;;;;;;5048480;28;20044;-81
2023/10/02 00:29:34;;;;;;;12.63;6.20;;;;;;;;;;5066363;28;20024;-81
2023/10/02 00:32:11;;;;;;;11.45;5.97;;;;;;;;;;5050620;28;20031;-81
2023/10/02 00:34:38;;;;;;;13.13;6.43;;;;;;;;;;5064381;28;20021;-81
2023/10/02 00:37:06;;;;;;;11.18;6.05;;;;;;;;;;5072284;28;20059;-81
2023/10/02 00:39:35;;;;;;;12.25;6.00;;;;;;;;;;5045114;28;20071;-81
2023/10/02 00:42:15;;;;;;;14.25;6.40;;;;;;;;;;5055219;28;20025;-81
2023/10/02 00:50:27;;;;;;;12.93;6.22;;;;;;;;;;5069995;28;20042;-81
2023/10/02 00:53:03;;;;;;;12.57;6.13;;;;;;;;;;5071151;28;20060;-81
2023/10/02 00:55:32;;;;;;;13.20;6.07;;;;;;;;;;5070561;28;20031;-81
2023/10/02 00:57:58;;;;;;;13.90;6.70;;;;;;;;;;5046757;28;20123;-81
2023/10/02 01:00:35;;;;;;;13.10;6.55;;;;;;;;;;5047134;28;20031;-81
2023/10/02 01:03:08;;;;;;;12.40;6.80;;;;;;;;;;5047240;28;20032;-81
2023/10/02 01:05:42;;;;;;;12.90;6.18;;;;;;;;;;5049323;28;20495;-81
2023/10/02 01:08:23;;;;;;;12.65;6.10;;;;;;;;;;5065258;28;20162;-81
2023/10/02 01:10:57;;;;;;;13.77;6.55;;;;;;;;;;5048934;28;20035;-81
2023/10/02 01:13:30;;;;;;;13.50;6.72;;;;;;;;;;5065836;28;20033;-81
2023/10/02 01:15:57;;;;;;;13.02;6.85;;;;;;;;;;5064619;28;20033;-81
2023/10/02 01:18:27;;;;;;;13.43;6.57;;;;;;;;;;5065868;28;20055;-81
2023/10/02 01:20:56;;;;;;;13.95;6.72;;;;;;;;;;5065062;28;20531;-81
2023/10/02 01:23:25;;;;;;;14.13;6.60;;;;;;;;;;5060080;28;20050;-81
2023/10/02 01:26:00;;;;;;;13.45;6.63;;;;;;;;;;5062393;28;20515;-81
2023/10/02 01:28:32;;;;;;;14.18;6.85;;;;;;;;;;5066830;28;20047;-81
2023/10/02 01:31:01;;;;;;;13.95;6.63;;;;;;;;;;5069403;28;20084;-81
2023/10/02 01:33:26;;;;;;;12.68;6.68;;;;;;;;;;5068838;28;20028;-81
2023/10/02 01:35:56;;;;;;;12.27;6.40;;;;;;;;;;5066769;28;20153;-81
2023/10/02 01:38:33;;;;;;;12.68;6.43;;;;;;;;;;5069842;28;20442;-81
2023/10/02 01:41:10;;;;;;;14.02;6.93;;;;;;;;;;5052649;28;20119;-81
2023/10/02 01:43:43;;;;;;;13.25;6.45;;;;;;;;;;5047454;28;20057;-81
2023/10/02 01:46:08;;;;;;;;;;;;;;;;;;5073646;28;20411;-81
2023/10/02 01:48:40;;;;;;;13.23;6.63;;;;;;;;;;5051599;28;19912;-81
2023/10/02 01:51:15;;;;;;;11.95;6.43;;;;;;;;;;5065532;28;20473;-81
2023/10/02 01:53:51;;;;;;;12.77;6.50;;;;;;;;;;5066302;28;20365;-81
2023/10/02 01:56:18;;;;;;;13.25;6.68;;;;;;;;;;5068363;28;20029;-81
2023/10/02 01:58:45;;;;;;;13.55;6.90;;;;;;;;;;5049687;28;20093;-79
2023/10/02 02:01:11;;;;;;;13.32;6.30;;;;;;;;;;5046808;28;20428;-79
2023/10/02 02:03:38;;;;;;;13.45;6.43;;;;;;;;;;5064256;28;20033;-79
2023/10/02 02:06:09;;;;;;;13.55;6.68;;;;;;;;;;5050076;28;20059;-79
2023/10/02 02:08:43;;;;;;;12.93;6.47;;;;;;;;;;5064564;28;20033;-78
2023/10/02 02:11:16;;;;;;;14.73;6.65;;;;;;;;;;5062113;28;20024;-79
2023/10/02 02:13:46;;;;;;;;;;;;;;;;;;5046673;28;20032;-78
2023/10/02 02:16:17;;;;;;;13.40;6.13;;;;;;;;;;5068317;28;21387;-79
2023/10/02 02:18:43;;;;;;;14.27;6.75;;;;;;;;;;5048524;28;20060;-79
2023/10/02 02:21:17;;;;;;;14.02;6.45;;;;;;;;;;5050400;28;20786;-79
2023/10/02 02:23:42;;;;;;;16.10;7.20;;;;;;;;;;5050131;28;20039;-79
2023/10/02 02:26:10;;;;;;;13.25;6.82;;;;;;;;;;5062904;28;20036;-78
2023/10/02 02:28:45;;;;;;;14.60;7.63;;;;;;;;;;5049865;28;20028;-79
2023/10/02 02:31:29;;;;;;;14.23;6.72;;;;;;;;;;5065895;28;20024;-79
2023/10/02 02:34:02;;;;;;;16.05;6.97;;;;;;;;;;5068194;28;20476;-79
2023/10/02 02:36:35;;;;;;;15.18;7.05;;;;;;;;;;5063406;28;20032;-79
2023/10/02 02:39:15;;;;;;;14.20;6.78;;;;;;;;;;5054674;28;20475;-79
2023/10/02 02:41:46;;;;;;;13.40;7.10;;;;;;;;;;5050157;28;20062;-81
2023/10/02 02:44:35;;;;;;;14.18;6.95;;;;;;;;;;5055647;28;20033;-79
2023/10/02 02:46:59;;;;;;;16.50;7.43;;;;;;;;;;5068972;28;20553;-78
2023/10/02 02:49:29;;;;;;;15.20;7.05;;;;;;;;;;5052359;28;20032;-79
2023/10/02 02:51:58;;;;;;;17.35;7.78;;;;;;;;;;5056662;28;20115;-79
2023/10/02 02:54:25;;;;;;;14.52;6.78;;;;;;;;;;5058517;28;20024;-79
2023/10/02 02:56:58;;;;;;;14.77;7.22;;;;;;;;;;5074701;28;20035;-78
2023/10/02 02:59:27;;;;;;;;;;;;;;;;;;5069395;28;20028;-78
2023/10/02 03:02:08;;;;;;;16.27;7.18;;;;;;;;;;5075617;28;20371;-78
2023/10/02 03:04:35;;;;;;;14.18;7.18;;;;;;;;;;5058356;28;20174;-78
2023/10/02 03:07:07;;;;;;;17.63;7.30;;;;;;;;;;5066876;28;20480;-79
2023/10/02 03:09:34;;;;;;;13.23;6.85;;;;;;;;;;5067347;28;20107;-81
2023/10/02 03:11:59;;;;;;;15.52;7.32;;;;;;;;;;5070135;28;20032;-80
2023/10/02 03:14:25;;;;;;;14.70;7.20;;;;;;;;;;5068417;28;20027;-81
2023/10/02 03:16:51;;;;;;;13.25;7.30;;;;;;;;;;5067987;28;20107;-81
2023/10/02 03:19:19;;;;;;;15.05;7.55;;;;;;;;;;5046090;28;20027;-81
2023/10/02 03:21:47;;;;;;;16.15;8.05;;;;;;;;;;5079063;28;20061;-81
2023/10/02 03:24:18;;;;;;;16.15;7.47;;;;;;;;;;5053004;28;20020;-81
2023/10/02 03:26:44;;;;;;;16.13;7.78;;;;;;;;;;5070645;28;20028;-81
2023/10/02 03:29:21;;;;;;;13.75;7.03;;;;;;;;;;5068745;28;20393;-85
2023/10/02 03:31:51;;;;;;;13.70;6.88;;;;;;;;;;5068314;28;20392;-84
2023/10/02 03:34:28;;;;;;;16.23;7.57;;;;;;;;;;5071137;28;20574;-85
2023/10/02 03:37:13;;;;;;;15.98;7.18;;;;;;;;;;5049551;28;20476;-84
2023/10/02 03:39:52;;;;;;;13.90;7.05;;;;;;;;;;5065852;28;20302;-84
2023/10/02 03:42:22;;;;;;;15.10;7.25;;;;;;;;;;5052022;28;20502;-84
2023/10/02 03:44:49;;;;;;;15.77;7.32;;;;;;;;;;5063260;28;20032;-83
2023/10/02 03:47:15;;;;;;;16.95;7.05;;;;;;;;;;5051195;28;20127;-83
2023/10/02 03:49:44;;;;;;;15.02;7.50;;;;;;;;;;5065053;28;20619;-84
2023/10/02 03:52:16;;;;;;;15.15;7.13;;;;;;;;;;5051637;28;20527;-85
2023/10/02 03:54:45;;;;;;;15.82;7.05;;;;;;;;;;5062689;28;20477;-84
2023/10/02 03:57:37;;;;;;;14.52;7.25;;;;;;;;;;5052544;28;20477;-85
2023/10/02 04:00:17;;;;;;;14.98;6.72;;;;;;;;;;5069024;28;20024;-85
2023/10/02 04:02:45;;;;;;;15.27;6.75;;;;;;;;;;5068079;28;20441;-83
2023/10/02 04:06:00;;;;;;;14.80;7.40;;;;;;;;;;5050481;28;20419;-85
2023/10/02 04:08:31;;;;;;;14.10;7.05;;;;;;;;;;5056679;28;20048;-85
2023/10/02 04:10:56;;;;;;;15.00;7.30;;;;;;;;;;5064077;28;20457;-85
2023/10/02 04:13:24;;;;;;;12.73;6.22;;;;;;;;;;5052644;28;20059;-84
2023/10/02 04:15:53;;;;;;;14.10;6.78;;;;;;;;;;5065581;28;20032;-83
2023/10/02 04:21:12;;;;;;;14.20;7.20;;;;;;;;;;5059827;28;20071;-81
2023/10/02 04:23:40;;;;;;;15.52;6.65;;;;;;;;;;5044644;28;20017;-81
2023/10/02 04:26:19;;;;;;;14.88;7.35;;;;;;;;;;5044119;28;20078;-81
2023/10/02 04:28:49;;;;;;;17.00;7.15;;;;;;;;;;5045440;28;21204;-81
2023/10/02 04:31:21;;;;;;;14.27;7.10;;;;;;;;;;5055589;28;20456;-81
2023/10/02 04:34:15;;;;;;;15.20;6.75;;;;;;;;;;5045076;28;20464;-81
2023/10/02 04:36:34;;;;;;;16.60;7.75;;;;;;;;;;5066723;28;20037;-81
2023/10/02 04:39:04;;;;;;;14.45;6.75;;;;;;;;;;5055937;28;20155;-81
2023/10/02 04:41:37;;;;;;;12.45;6.15;;;;;;;;;;5063314;28;20150;-81
2023/10/02 04:44:04;;;;;;;14.10;6.60;;;;;;;;;;5059810;28;20524;-81
2023/10/02 04:46:32;;;;;;;14.95;6.90;;;;;;;;;;5071355;28;20056;-81
2023/10/02 04:48:59;;;;;;;15.13;6.90;;;;;;;;;;5058731;28;20028;-81
2023/10/02 04:51:28;;;;;;;15.57;7.00;;;;;;;;;;5060942;28;20028;-81
2023/10/02 04:53:57;;;;;;;14.18;7.00;;;;;;;;;;5060660;28;20112;-81
2023/10/02 04:56:26;;;;;;;14.15;6.90;;;;;;;;;;5062638;28;20025;-81
2023/10/02 04:58:57;;;;;;;12.90;6.55;;;;;;;;;;5066949;28;20078;-81
2023/10/02 05:01:29;;;;;;;17.35;7.57;;;;;;;;;;5060386;28;20480;-81
2023/10/02 05:04:07;;;;;;;15.20;7.30;;;;;;;;;;5059856;28;20052;-79
2023/10/02 05:06:44;;;;;;;14.63;7.05;;;;;;;;;;5059571;28;20031;-78
2023/10/02 05:11:50;;;;;;;;;;;;;;;;;;5066923;28;20024;-78
2023/10/02 05:14:26;;;;;;;16.60;7.13;;;;;;;;;;5069600;28;19958;-79
2023/10/02 05:16:51;;;;;;;14.07;6.95;;;;;;;;;;5043645;28;20511;-79
2023/10/02 05:19:17;;;;;;;13.52;7.10;;;;;;;;;;5049403;28;20020;-78
2023/10/02 05:21:51;;;;;;;14.15;6.68;;;;;;;;;;5062917;28;20029;-78
2023/10/02 05:24:18;;;;;;;12.57;6.30;;;;;;;;;;5058463;28;20040;-78
2023/10/02 05:26:44;;;;;;;15.35;7.38;;;;;;;;;;5064315;28;20107;-78
2023/10/02 05:29:17;;;;;;;14.52;7.07;;;;;;;;;;5063340;28;20036;-85
2023/10/02 05:31:47;;;;;;;;;;;;;;;;;;5050022;28;20094;-83
2023/10/02 05:34:21;;;;;;;14.40;6.85;;;;;;;;;;5063764;28;19955;-84
2023/10/02 05:39:39;;;;;;;15.93;7.30;;;;;;;;;;5060727;28;20035;-84
2023/10/02 05:42:05;;;;;;;14.75;6.78;;;;;;;;;;5056978;28;20504;-84
2023/10/02 05:44:35;;;;;;;17.17;7.50;;;;;;;;;;5051085;28;20048;-85
2023/10/02 05:47:07;;;;;;;13.20;7.25;;;;;;;;;;5066108;28;20063;-84
2023/10/02 05:49:47;;;;;;;14.20;7.00;;;;;;;;;;5066965;28;20074;-82
2023/10/02 05:52:12;;;;;;;13.07;6.93;;;;;;;;;;5068284;28;20020;-84
2023/10/02 05:54:40;;;;;;;15.68;7.43;;;;;;;;;;5050620;28;20511;-85
2023/10/02 05:57:08;;;;;;;18.00;7.40;;;;;;;;;;5069406;28;20024;-84
2023/10/02 05:59:47;;;;;;;14.77;7.50;;;;;;;;;;5068800;28;20085;-84
2023/10/02 06:02:14;;;;;;;13.88;6.72;;;;;;;;;;5054145;28;20036;-83
2023/10/02 06:04:52;;;;;;;12.98;6.53;;;;;;;;;;5054189;28;20028;-84
2023/10/02 06:10:08;;;;;;;14.77;6.93;;;;;;;;;;5067066;28;20040;-83
2023/10/02 06:12:34;;;;;;;15.13;7.13;;;;;;;;;;5064211;28;20382;-84
2023/10/02 06:15:09;;;;;;;16.33;7.07;;;;;;;;;;5068121;28;20040;-84
2023/10/02 06:17:35;;;;;;;16.45;7.53;;;;;;;;;;5049041;28;20032;-84
2023/10/02 06:20:01;;;;;;;17.33;7.35;;;;;;;;;;5064984;28;21522;-84
2023/10/02 06:22:26;;;;;;;15.00;7.00;;;;;;;;;;5056351;28;20108;-84
2023/10/02 06:24:52;;;;;;;15.05;7.07;;;;;;;;;;5065139;28;20034;-84
2023/10/02 06:27:21;;;;;;;15.00;6.80;;;;;;;;;;5070325;28;20469;-84
2023/10/02 06:29:50;;;;;;;18.08;7.45;;;;;;;;;;5049045;28;20025;-84
2023/10/02 06:32:23;;;;;;;16.35;7.32;;;;;;;;;;5065115;28;20495;-84
2023/10/02 06:34:57;;;;;;;14.93;6.90;;;;;;;;;;5057109;28;20054;-84
2023/10/02 06:37:30;;;;;;;15.00;7.05;;;;;;;;;;5044404;28;20522;-84
2023/10/02 06:40:14;;;;;;;14.98;6.97;;;;;;;;;;5054056;28;20017;-81
2023/10/02 06:42:48;;;;;;;16.13;7.80;;;;;;;;;;5065420;28;20051;-81
2023/10/02 06:45:18;;;;;;;14.43;6.63;;;;;;;;;;5050377;28;20477;-81
2023/10/02 06:47:44;;;;;;;16.25;7.15;;;;;;;;;;5052407;28;20029;-80
2023/10/02 06:50:31;;;;;;;14.65;7.25;;;;;;;;;;5070994;28;20074;-81
2023/10/02 06:53:00;;;;;;;15.65;7.32;;;;;;;;;;5071893;28;20067;-80
2023/10/02 06:55:26;;;;;;;16.20;7.85;;;;;;;;;;5048219;28;20035;-80
2023/10/02 06:57:56;;;;;;;13.15;6.65;;;;;;;;;;5054193;28;20051;-81
2023/10/02 07:00:23;;;;;;;14.45;6.20;;;;;;;;;;5053566;28;20384;-81
2023/10/02 07:02:58;;;;;;;14.68;6.32;;;;;;;;;;5072731;28;20038;-80
2023/10/02 07:05:32;;;;;;;15.30;7.32;;;;;;;;;;5072274;28;20027;-81
2023/10/02 07:08:17;;;;;;;14.95;7.05;;;;;;;;;;5054713;28;20036;-80
2023/10/02 07:10:43;;;;;;;17.38;7.70;;;;;;;;;;5052815;28;20048;-81
2023/10/02 07:13:21;;;;;;;13.73;6.50;;;;;;;;;;5060764;28;20064;-78
2023/10/02 07:15:55;;;;;;;15.40;6.93;;;;;;;;;;5049171;28;20093;-78
2023/10/02 07:18:21;;;;;;;16.45;7.00;;;;;;;;;;5049317;28;20031;-78
2023/10/02 07:20:52;;;;;;;16.20;7.10;;;;;;;;;;5047681;28;20032;-79
2023/10/02 07:23:22;;;;;;;17.05;7.80;;;;;;;;;;5066275;28;20476;-79
2023/10/02 07:25:50;;;;;;;18.50;8.77;;;;;;;;;;5049531;28;20024;-79
2023/10/02 07:28:21;;;;;;;19.08;8.10;;;;;;;;;;5045806;28;20534;-79
2023/10/02 07:30:50;;;;;;;15.77;7.60;;;;;;;;;;5043489;28;20090;-78
2023/10/02 07:33:19;;;;;;;17.55;7.82;;;;;;;;;;5052238;28;20024;-78
2023/10/02 07:35:54;;;;;;;17.65;8.60;;;;;;;;;;5065478;28;20392;-78
2023/10/02 07:38:30;;;;;;;18.38;7.90;;;;;;;;;;5064111;28;20135;-78
2023/10/02 07:41:06;;;;;;;21.17;8.15;;;;;;;;;;5067109;28;20038;-78
2023/10/02 07:43:32;;;;;;;18.48;8.60;;;;;;;;;;5066150;28;20077;-78
2023/10/02 07:46:19;;;;;;;21.27;8.98;;;;;;;;;;5054484;28;20112;-78
2023/10/02 07:48:57;;;;;;;18.67;8.15;;;;;;;;;;5065114;28;20473;-85
2023/10/02 07:51:30;;;;;;;19.17;8.25;;;;;;;;;;5062006;28;20044;-85
2023/10/02 07:53:58;;;;;;;20.42;8.95;;;;;;;;;;5048885;28;20032;-85
2023/10/02 07:56:24;;;;;;;17.25;8.75;;;;;;;;;;5047370;28;20028;-86
2023/10/02 07:58:55;;;;;;;19.58;8.65;;;;;;;;;;5049464;28;20115;-85
2023/10/02 08:01:23;;;;;;;19.50;8.57;;;;;;;;;;5066549;28;20024;-81
2023/10/02 08:03:49;;;;;;;18.60;8.45;;;;;;;;;;5050795;28;20487;-81
2023/10/02 08:06:23;;;;;;;18.40;8.65;;;;;;;;;;5061798;28;20051;-81
2023/10/02 08:11:34;;;;;;;15.25;7.88;;;;;;;;;;5068360;28;20043;-82
2023/10/02 08:14:00;;;;;;;20.85;8.75;;;;;;;;;;5051860;28;20029;-82
2023/10/02 08:16:27;;;;;;;17.85;8.70;;;;;;;;;;5047123;28;20387;-82
2023/10/02 08:18:58;;;;;;;16.85;8.38;;;;;;;;;;5049675;28;20111;-82
2023/10/02 08:21:45;;;;;;;18.70;8.90;;;;;;;;;;5070710;28;20060;-82
2023/10/02 08:24:11;;;;;;;19.10;8.82;;;;;;;;;;5059399;28;20047;-82
2023/10/02 08:26:43;;;;;;;20.58;8.82;;;;;;;;;;5063782;28;20472;-81
2023/10/02 08:29:15;;;;;;;20.77;9.00;;;;;;;;;;5065332;28;20033;-82
2023/10/02 08:31:45;;;;;;;16.88;8.77;;;;;;;;;;5051456;28;20031;-82
2023/10/02 08:34:12;;;;;;;19.65;8.65;;;;;;;;;;5044885;28;20070;-82
2023/10/02 08:36:41;;;;;;;19.40;8.50;;;;;;;;;;5065004;28;20177;-82
2023/10/02 08:39:08;;;;;;;19.85;9.50;;;;;;;;;;5065890;28;20082;-82
2023/10/02 08:41:43;;;;;;;19.70;9.30;;;;;;;;;;5070846;28;20032;-83
2023/10/02 08:44:10;;;;;;;22.55;9.90;;;;;;;;;;5051853;28;20408;-82
2023/10/02 08:46:36;;;;;;;20.52;9.75;;;;;;;;;;5070467;28;20435;-82
2023/10/02 08:49:03;;;;;;;18.05;8.98;;;;;;;;;;5068114;28;20094;-82
2023/10/02 08:51:38;;;;;;;18.95;8.90;;;;;;;;;;5064781;28;20453;-81
2023/10/02 08:54:05;;;;;;;20.60;9.30;;;;;;;;;;5069008;28;20031;-81
2023/10/02 08:56:43;;;;;;;19.98;9.73;;;;;;;;;;5049331;28;20029;-82
2023/10/02 08:59:18;;;;;;;21.48;9.98;;;;;;;;;;5049110;28;20454;-83
2023/10/02 09:01:48;;;;;;;18.25;8.52;;;;;;;;;;5070557;28;20040;-83
2023/10/02 09:06:58;;;;;;;16.95;8.73;;;;;;;;;;5065556;28;20537;-83
2023/10/02 09:09:27;;;;;;;19.13;9.52;;;;;;;;;;5068744;28;20490;-83
2023/10/02 09:11:58;;;;;;;16.20;8.10;;;;;;;;;;5050324;28;20028;-83
2023/10/02 09:19:41;;;;;;;17.50;8.60;;;;;;;;;;5069379;28;20120;-83
2023/10/02 09:22:13;;;;;;;19.98;9.00;;;;;;;;;;5067283;28;20036;-81
2023/10/02 09:24:55;;;;;;;19.52;9.30;;;;;;;;;;5068696;28;20062;-80
2023/10/02 09:27:23;;;;;;;19.23;8.52;;;;;;;;;;5071781;28;20029;-80
2023/10/02 09:33:08;;;;;;;16.90;8.88;;;;;;;;;;5058660;28;20132;-80
2023/10/02 09:35:44;;;;;;;17.83;8.48;;;;;;;;;;5066443;28;20470;-80
2023/10/02 09:38:10;;;;;;;21.00;9.27;;;;;;;;;;5053089;28;20049;-81
2023/10/02 09:43:31;;;;;;;18.25;9.13;;;;;;;;;;5064210;28;20031;-81
2023/10/02 09:45:59;;;;;;;17.43;8.27;;;;;;;;;;5051014;28;20028;-80
2023/10/02 09:51:37;;;;;;;18.98;9.90;;;;;;;;;;5070589;28;20083;-80
2023/10/02 09:54:13;;;;;;;20.88;9.05;;;;;;;;;;5070705;28;20031;-80
2023/10/02 09:57:11;;;;;;;19.17;9.68;;;;;;;;;;5052836;28;20570;-80
2023/10/02 09:59:47;;;;;;;18.33;9.27;;;;;;;;;;5067662;28;20551;-80
2023/10/02 10:07:46;;;;;;;17.95;9.30;;;;;;;;;;5063422;28;20032;-82
2023/10/02 10:10:48;;;;;;;18.92;9.30;;;;;;;;;;5051631;28;20020;-80
2023/10/02 10:13:37;;;;;;;21.38;9.80;;;;;;;;;;5054189;28;20029;-80
2023/10/02 10:16:18;;;;;;;19.27;9.23;;;;;;;;;;5052635;28;20503;-80
2023/10/02 10:21:56;;;;;;;19.23;8.88;;;;;;;;;;5066908;28;20496;-81
2023/10/02 10:25:22;;;;;;;20.60;9.30;;;;;;;;;;5046402;28;20044;-80
2023/10/02 10:27:58;;;;;;;17.73;9.00;;;;;;;;;;5065476;28;20085;-80
2023/10/02 10:33:01;;;;;;;18.02;8.45;;;;;;;;;;5070177;28;20111;-80
2023/10/02 10:35:35;;;;;;;18.63;8.98;;;;;;;;;;5069221;28;20020;-80
2023/10/02 10:38:21;;;;;;;18.55;8.52;;;;;;;;;;5065687;28;20538;-80
2023/10/02 10:40:50;;;;;;;17.33;7.05;;;;;;;;;;5071462;28;20111;-80
2023/10/02 10:43:21;;;;;;;15.88;7.70;;;;;;;;;;5068366;28;20036;-81
2023/10/02 10:45:48;;;;;;;17.13;8.68;;;;;;;;;;5068516;28;20039;-80
2023/10/02 10:48:22;;;;;;;17.40;8.55;;;;;;;;;;5068673;28;20056;-80
2023/10/02 10:50:57;;;;;;;17.23;8.02;;;;;;;;;;5048929;28;20025;-80
2023/10/02 10:53:26;;;;;;;19.63;8.13;;;;;;;;;;5055197;28;20021;-80
2023/10/02 10:55:56;;;;;;;16.10;7.40;;;;;;;;;;5053061;28;20027;-80
2023/10/02 10:58:35;;;;;;;16.70;7.57;;;;;;;;;;5069191;28;20031;-80
2023/10/02 11:01:05;;;;;;;12.80;6.80;;;;;;;;;;5058477;28;20056;-81
2023/10/02 11:03:31;;;;;;;19.17;8.55;;;;;;;;;;5051895;28;20463;-80
2023/10/02 11:06:04;;;;;;;16.98;7.72;;;;;;;;;;5064150;28;20024;-80
2023/10/02 11:08:33;;;;;;;17.50;7.85;;;;;;;;;;5069288;28;20070;-80
2023/10/02 11:11:06;;;;;;;16.65;8.02;;;;;;;;;;5069923;28;20082;-81
2023/10/02 11:13:51;;;;;;;;;;;;;;;;;;5051531;28;20032;-80
2023/10/02 11:16:30;;;;;;;16.58;7.78;;;;;;;;;;5053142;28;19917;-80
2023/10/02 11:22:14;;;;;;;17.52;8.07;;;;;;;;;;5059465;28;20026;-80
2023/10/02 11:24:55;;;;;;;15.90;7.15;;;;;;;;;;5067409;28;20083;-80
2023/10/02 11:27:24;;;;;;;17.10;7.50;;;;;;;;;;5051118;28;20024;-80
2023/10/02 11:30:03;;;;;;;15.57;7.82;;;;;;;;;;5048784;28;20392;-81
2023/10/02 11:32:58;;;;;;;17.52;7.95;;;;;;;;;;5059896;28;20025;-81
2023/10/02 11:35:37;;;;;;;18.27;8.07;;;;;;;;;;5069279;28;20028;-80
2023/10/02 11:38:04;;;;;;;15.05;7.20;;;;;;;;;;5067358;28;20389;-81
2023/10/02 11:40:29;;;;;;;18.30;7.93;;;;;;;;;;5063919;28;20025;-80
2023/10/02 11:42:59;;;;;;;17.17;7.50;;;;;;;;;;5053049;28;20025;-81
2023/10/02 11:45:29;;;;;;;16.60;7.07;;;;;;;;;;5053292;28;20039;-81
2023/10/02 11:47:55;;;;;;;15.85;7.03;;;;;;;;;;5067298;28;20361;-81
2023/10/02 11:50:21;;;;;;;14.32;7.10;;;;;;;;;;5051304;28;20082;-81
2023/10/02 11:52:47;;;;;;;16.35;7.80;;;;;;;;;;5070060;28;20158;-80
2023/10/02 11:55:17;;;;;;;16.73;7.95;;;;;;;;;;5051333;28;20107;-81
2023/10/02 11:57:43;;;;;;;15.13;7.40;;;;;;;;;;5067745;28;20111;-81
2023/10/02 12:00:12;;;;;;;16.55;7.75;;;;;;;;;;5071713;28;20035;-80
2023/10/02 12:02:39;;;;;;;15.90;7.22;;;;;;;;;;5044256;28;20079;-81
2023/10/02 12:05:07;;;;;;;14.80;7.40;;;;;;;;;;5047608;28;20028;-81
2023/10/02 12:07:32;;;;;;;15.40;7.80;;;;;;;;;;5053764;28;20550;-81
2023/10/02 12:09:58;;;;;;;16.27;7.85;;;;;;;;;;5052443;28;20033;-81
2023/10/02 12:12:25;;;;;;;19.13;7.63;;;;;;;;;;5050213;28;20024;-82
2023/10/02 12:14:51;;;;;;;13.43;6.97;;;;;;;;;;5063832;28;20391;-81
2023/10/02 12:17:16;;;;;;;16.20;6.70;;;;;;;;;;5045490;28;20039;-81
2023/10/02 12:19:43;;;;;;;16.08;6.35;;;;;;;;;;5052676;28;20037;-81
2023/10/02 12:22:09;;;;;;;16.05;6.82;;;;;;;;;;5064151;28;20511;-81
2023/10/02 12:24:35;;;;;;;15.70;6.70;;;;;;;;;;5053532;28;20052;-81
2023/10/02 12:27:01;;;;;;;13.93;6.30;;;;;;;;;;5048736;28;20031;-80
2023/10/02 12:29:27;;;;;;;14.68;7.00;;;;;;;;;;5046498;28;20456;-81
2023/10/02 12:31:52;;;;;;;14.13;6.63;;;;;;;;;;5069679;28;20085;-80
2023/10/02 12:34:20;;;;;;;14.30;5.95;;;;;;;;;;5047495;28;20032;-81
2023/10/02 12:36:45;;;;;;;14.25;6.60;;;;;;;;;;5070290;28;20032;-81
2023/10/02 12:39:14;;;;;;;13.40;5.93;;;;;;;;;;5068994;28;20066;-81
2023/10/02 12:41:44;;;;;;;13.40;6.65;;;;;;;;;;5047727;28;20025;-81
2023/10/02 12:44:10;;;;;;;12.50;6.05;;;;;;;;;;5051889;28;20058;-81
2023/10/02 12:46:44;;;;;;;13.95;7.35;;;;;;;;;;5056022;28;20032;-81
2023/10/02 12:49:13;;;;;;;15.93;6.47;;;;;;;;;;5072749;28;20027;-81
2023/10/02 12:51:40;;;;;;;15.88;7.43;;;;;;;;;;5048063;28;20075;-81
2023/10/02 12:54:06;;;;;;;14.40;6.63;;;;;;;;;;5056216;28;20487;-82
2023/10/02 12:56:31;;;;;;;14.32;6.95;;;;;;;;;;5068204;28;20066;-80
2023/10/02 12:58:56;;;;;;;17.40;7.15;;;;;;;;;;5049972;28;20025;-81
2023/10/02 13:01:29;;;;;;;16.13;6.78;;;;;;;;;;5072267;28;20035;-81
2023/10/02 13:03:56;;;;;;;14.35;6.80;;;;;;;;;;5053880;28;20029;-81
2023/10/02 13:06:24;;;;;;;15.88;7.80;;;;;;;;;;5054922;28;20020;-81
2023/10/02 13:08:49;;;;;;;15.85;6.95;;;;;;;;;;5072222;28;20388;-80
2023/10/02 13:11:19;;;;;;;21.45;8.65;;;;;;;;;;5074917;28;20029;-81
2023/10/02 13:13:48;;;;;;;18.90;9.02;;;;;;;;;;5055878;28;20110;-80
2023/10/02 13:16:15;;;;;;;15.45;7.75;;;;;;;;;;5065455;28;20025;-81
2023/10/02 13:18:43;;;;;;;17.95;8.52;;;;;;;;;;5077610;28;20032;-80
2023/10/02 13:21:10;;;;;;;19.88;9.95;;;;;;;;;;5052964;28;20043;-81
2023/10/02 13:23:38;;;;;;;20.65;9.65;;;;;;;;;;5062932;28;20476;-81
2023/10/02 13:26:08;;;;;;;22.27;9.65;;;;;;;;;;5051649;28;20424;-82
2023/10/02 13:28:37;;;;;;;23.35;9.70;;;;;;;;;;5061543;28;20443;-81
2023/10/02 13:31:16;;;;;;;21.60;10.68;;;;;;;;;;5042571;28;20369;-81
2023/10/02 13:33:51;;;;;;;21.15;10.32;;;;;;;;;;5048140;28;20025;-81
2023/10/02 13:36:22;;;;;;;26.60;11.82;;;;;;;;;;5050194;28;21759;-81
2023/10/02 13:38:49;;;;;;;21.10;11.05;;;;;;;;;;5070511;28;20025;-81
2023/10/02 13:41:17;;;;;;;21.23;10.43;;;;;;;;;;5074822;28;20468;-81
2023/10/02 13:43:43;;;;;;;21.77;11.27;;;;;;;;;;5043021;28;20500;-81
2023/10/02 13:46:10;;;;;;;22.77;10.95;;;;;;;;;;5051530;28;20119;-81
2023/10/02 13:48:37;;;;;;;23.40;10.07;;;;;;;;;;5046271;28;20036;-81
2023/10/02 13:51:06;;;;;;;20.35;9.60;;;;;;;;;;5064511;28;20032;-81
2023/10/02 13:53:35;;;;;;;17.77;8.90;;;;;;;;;;5062408;28;20036;-81
2023/10/02 13:56:09;;;;;;;20.30;8.85;;;;;;;;;;5072295;28;20523;-81
2023/10/02 13:58:51;;;;;;;18.40;8.95;;;;;;;;;;5064801;28;20024;-82
2023/10/02 14:01:26;;;;;;;18.30;9.27;;;;;;;;;;5067078;28;20028;-82
2023/10/02 14:03:53;;;;;;;16.55;8.43;;;;;;;;;;5048863;28;20507;-82
2023/10/02 14:06:24;;;;;;;25.48;9.68;;;;;;;;;;5065756;28;20029;-83
2023/10/02 14:08:50;;;;;;;19.45;9.07;;;;;;;;;;5067021;28;20029;-82
2023/10/02 14:11:16;;;;;;;19.10;8.90;;;;;;;;;;5049562;28;20028;-82
2023/10/02 14:13:42;;;;;;;19.30;9.27;;;;;;;;;;5064863;28;20028;-82
2023/10/02 14:16:11;;;;;;;15.60;7.05;;;;;;;;;;5066108;28;20039;-82
2023/10/02 14:18:38;;;;;;;16.88;8.48;;;;;;;;;;5050621;28;20337;-82
2023/10/02 14:21:06;;;;;;;15.95;7.60;;;;;;;;;;5049606;28;20120;-82
2023/10/02 14:23:34;;;;;;;18.55;8.38;;;;;;;;;;5046804;28;20025;-82
2023/10/02 14:26:00;;;;;;;17.95;7.80;;;;;;;;;;5064728;28;20119;-82
2023/10/02 14:28:26;;;;;;;17.42;7.65;;;;;;;;;;5041200;28;20032;-81
2023/10/02 14:30:52;;;;;;;20.45;7.93;;;;;;;;;;5060543;28;20737;-82
2023/10/02 14:33:17;;;;;;;16.35;7.90;;;;;;;;;;5061206;28;20020;-82
2023/10/02 14:35:43;;;;;;;15.50;8.15;;;;;;;;;;5048733;28;20036;-82
2023/10/02 14:38:10;;;;;;;17.30;8.15;;;;;;;;;;5062311;28;20040;-82
2023/10/02 14:40:36;;;;;;;15.80;7.55;;;;;;;;;;5043265;28;20504;-82
2023/10/02 14:43:02;;;;;;;15.82;7.43;;;;;;;;;;5042058;28;20113;-84
2023/10/02 14:45:28;;;;;;;19.00;8.90;;;;;;;;;;5069286;28;20412;-82
2023/10/02 14:47:59;;;;;;;19.48;8.57;;;;;;;;;;5049423;28;20024;-82
2023/10/02 14:50:25;;;;;;;15.93;7.95;;;;;;;;;;5066240;28;20055;-83
2023/10/02 14:52:52;;;;;;;17.77;7.75;;;;;;;;;;5047108;28;20035;-82
2023/10/02 14:55:18;;;;;;;17.73;8.30;;;;;;;;;;5051952;28;20509;-81
2023/10/02 14:57:45;;;;;;;17.42;8.30;;;;;;;;;;5065218;28;20117;-81
2023/10/02 15:00:13;;;;;;;19.27;8.48;;;;;;;;;;5056992;28;20058;-81
2023/10/02 15:02:40;;;;;;;17.23;8.15;;;;;;;;;;5063564;28;20081;-81
2023/10/02 15:05:06;;;;;;;16.67;7.72;;;;;;;;;;5054396;28;20032;-81
2023/10/02 15:07:36;;;;;;;16.02;7.97;;;;;;;;;;5060721;28;20044;-81
2023/10/02 15:10:02;;;;;;;15.30;7.63;;;;;;;;;;5060192;28;20024;-81
2023/10/02 15:12:30;;;;;;;16.90;8.30;;;;;;;;;;5043661;28;20074;-81
2023/10/02 15:14:55;;;;;;;16.15;7.90;;;;;;;;;;5056160;28;20028;-81
2023/10/02 15:17:22;;;;;;;16.23;8.13;;;;;;;;;;5047172;28;20039;-81
2023/10/02 15:19:47;;;;;;;18.65;8.43;;;;;;;;;;5057244;28;20033;-81
2023/10/02 15:22:13;;;;;;;17.55;7.95;;;;;;;;;;5062217;28;20028;-81
2023/10/02 15:24:38;;;;;;;15.52;7.95;;;;;;;;;;5021355;28;20039;-80
2023/10/02 15:27:05;;;;;;;18.08;8.73;;;;;;;;;;5039807;28;20442;-81
2023/10/02 15:29:30;;;;;;;16.73;8.20;;;;;;;;;;5057623;28;20028;-81
2023/10/02 15:31:55;;;;;;;16.15;7.95;;;;;;;;;;5057613;28;20028;-81
2023/10/02 15:34:21;;;;;;;17.45;7.97;;;;;;;;;;5055438;28;20105;-81
2023/10/02 15:36:47;;;;;;;16.38;8.23;;;;;;;;;;5060530;28;20028;-81
2023/10/02 15:39:14;;;;;;;16.05;8.07;;;;;;;;;;5061017;28;20032;-81
2023/10/02 15:41:44;;;;;;;17.83;8.32;;;;;;;;;;5037639;28;20443;-82
2023/10/02 15:44:15;;;;;;;16.40;7.85;;;;;;;;;;5053184;28;20078;-81
2023/10/02 15:46:42;;;;;;;18.67;8.55;;;;;;;;;;5060492;28;20504;-81
2023/10/02 15:49:09;;;;;;;18.02;8.60;;;;;;;;;;5059956;28;20472;-81